createdAt,value
2022-08-30T00:01:24.358Z,101342.00
2022-08-30T00:03:55.063Z,101344.40
2022-08-30T00:06:24.437Z,101340.00
2022-08-30T00:08:52.541Z,101342.40
2022-08-30T00:11:27.906Z,101335.80
2022-08-30T00:13:56.686Z,101335.20
2022-08-30T00:16:26.568Z,101333.60
2022-08-30T00:18:53.952Z,101336.60
2022-08-30T00:21:21.873Z,101331.80
2022-08-30T00:23:48.977Z,101334.40
2022-08-30T00:26:16.347Z,101325.80
2022-08-30T00:28:43.095Z,101324.40
2022-08-30T00:31:10.385Z,101327.00
2022-08-30T00:33:40.527Z,101323.80
2022-08-30T00:36:07.662Z,101323.80
2022-08-30T00:38:34.462Z,101321.00
2022-08-30T00:41:01.530Z,101317.80
2022-08-30T00:43:34.184Z,101321.20
2022-08-30T00:46:08.188Z,101322.60
2022-08-30T00:48:41.187Z,101330.00
2022-08-30T00:51:12.774Z,101327.80
2022-08-30T00:53:46.483Z,101326.40
2022-08-30T00:56:14.273Z,101322.80
2022-08-30T00:58:47.695Z,101321.80
2022-08-30T01:01:15.132Z,101321.20
2022-08-30T01:03:43.973Z,101320.80
2022-08-30T01:06:15.534Z,101325.00
2022-08-30T01:08:44.307Z,101326.00
2022-08-30T01:11:15.075Z,101329.60
2022-08-30T01:13:43.450Z,101328.20
2022-08-30T01:16:10.940Z,101330.80
2022-08-30T01:18:39.658Z,101327.80
2022-08-30T01:21:32.756Z,101333.40
2022-08-30T01:24:02.166Z,101331.00
2022-08-30T01:26:30.813Z,101323.60
2022-08-30T01:29:05.131Z,101330.00
2022-08-30T01:31:34.631Z,101337.00
2022-08-30T01:34:03.213Z,101340.00
2022-08-30T01:36:30.181Z,101333.00
2022-08-30T01:38:58.359Z,101323.20
2022-08-30T01:41:36.268Z,101318.60
2022-08-30T01:44:11.094Z,101317.60
2022-08-30T01:46:45.878Z,101318.20
2022-08-30T01:49:27.503Z,101322.80
2022-08-30T01:52:01.071Z,101325.60
2022-08-30T01:54:37.009Z,101329.20
2022-08-30T01:57:08.140Z,101334.00
2022-08-30T01:59:35.329Z,101341.40
2022-08-30T02:02:03.248Z,101338.00
2022-08-30T02:04:30.369Z,101339.60
2022-08-30T02:06:57.286Z,101332.80
2022-08-30T02:09:24.400Z,101337.00
2022-08-30T02:11:52.046Z,101347.80
2022-08-30T02:14:18.852Z,101344.20
2022-08-30T02:16:48.769Z,101342.20
2022-08-30T02:19:16.560Z,101337.00
2022-08-30T02:21:43.450Z,101333.80
2022-08-30T02:24:10.888Z,101331.80
2022-08-30T02:26:37.697Z,101328.40
2022-08-30T02:29:06.233Z,101327.60
2022-08-30T02:31:33.677Z,101325.40
2022-08-30T02:34:01.270Z,101329.20
2022-08-30T02:36:28.393Z,101324.80
2022-08-30T02:38:55.198Z,101323.20
2022-08-30T02:41:23.780Z,101319.20
2022-08-30T02:43:51.415Z,101317.60
2022-08-30T02:46:19.104Z,101322.80
2022-08-30T02:48:46.033Z,101324.40
2022-08-30T02:51:14.692Z,101323.40
2022-08-30T02:53:44.087Z,101321.60
2022-08-30T02:56:13.738Z,101317.60
2022-08-30T02:58:42.608Z,101314.80
2022-08-30T03:01:13.796Z,101314.20
2022-08-30T03:03:43.576Z,101313.80
2022-08-30T03:06:10.604Z,101313.00
2022-08-30T03:08:38.189Z,101310.20
2022-08-30T03:11:06.275Z,101317.40
2022-08-30T03:13:33.282Z,101313.00
2022-08-30T03:16:00.137Z,101321.60
2022-08-30T03:18:26.953Z,101318.40
2022-08-30T03:20:54.524Z,101314.80
2022-08-30T03:23:24.170Z,101315.00
2022-08-30T03:25:53.697Z,101317.40
2022-08-30T03:28:20.852Z,101315.40
2022-08-30T03:30:48.170Z,101312.20
2022-08-30T03:33:15.705Z,101311.40
2022-08-30T03:35:42.771Z,101314.60
2022-08-30T03:38:09.724Z,101309.80
2022-08-30T03:40:36.851Z,101310.20
2022-08-30T03:43:05.452Z,101307.40
2022-08-30T03:45:32.613Z,101309.00
2022-08-30T03:47:59.784Z,101308.00
2022-08-30T03:50:26.806Z,101312.60
2022-08-30T03:52:53.667Z,101316.00
2022-08-30T03:55:21.065Z,101319.80
2022-08-30T03:57:48.069Z,101313.20
2022-08-30T04:00:19.053Z,101314.60
2022-08-30T04:02:46.023Z,101315.40
2022-08-30T04:05:14.764Z,101322.80
2022-08-30T04:07:46.437Z,101321.40
2022-08-30T04:10:13.419Z,101328.80
2022-08-30T04:12:40.207Z,101327.20
2022-08-30T04:15:10.494Z,101326.60
2022-08-30T04:17:37.599Z,101325.20
2022-08-30T04:20:05.079Z,101327.40
2022-08-30T04:22:31.949Z,101333.00
2022-08-30T04:24:58.766Z,101331.40
2022-08-30T04:27:25.632Z,101328.00
2022-08-30T04:29:54.176Z,101326.80
2022-08-30T04:32:23.379Z,101321.60
2022-08-30T04:34:50.345Z,101322.20
2022-08-30T04:37:17.214Z,101326.00
2022-08-30T04:39:44.312Z,101327.40
2022-08-30T04:42:11.509Z,101326.40
2022-08-30T04:44:38.416Z,101324.00
2022-08-30T04:47:05.268Z,101325.20
2022-08-30T04:49:33.209Z,101327.40
2022-08-30T04:51:59.977Z,101329.40
2022-08-30T04:54:26.883Z,101327.80
2022-08-30T04:56:53.941Z,101330.60
2022-08-30T04:59:22.246Z,101325.20
2022-08-30T05:01:49.136Z,101325.60
2022-08-30T05:04:16.023Z,101324.80
2022-08-30T05:06:43.385Z,101331.60
2022-08-30T05:09:10.270Z,101335.40
2022-08-30T05:11:38.244Z,101338.20
2022-08-30T05:14:06.122Z,101340.80
2022-08-30T05:16:32.977Z,101350.20
2022-08-30T05:19:00.351Z,101349.40
2022-08-30T05:21:29.298Z,101349.60
2022-08-30T05:24:00.138Z,101347.80
2022-08-30T05:26:34.446Z,101353.80
2022-08-30T05:29:01.819Z,101357.80
2022-08-30T05:31:36.816Z,101360.40
2022-08-30T05:34:05.541Z,101367.00
2022-08-30T05:36:36.626Z,101365.60
2022-08-30T05:39:06.463Z,101363.00
2022-08-30T05:41:33.680Z,101363.60
2022-08-30T05:44:03.268Z,101364.80
2022-08-30T05:46:35.492Z,101365.40
2022-08-30T05:49:06.319Z,101364.00
2022-08-30T05:51:43.108Z,101361.60
2022-08-30T05:54:13.783Z,101364.00
2022-08-30T05:56:45.355Z,101368.40
2022-08-30T05:59:13.431Z,101370.40
2022-08-30T06:01:47.125Z,101374.00
2022-08-30T06:04:15.228Z,101375.80
2022-08-30T06:06:44.451Z,101374.20
2022-08-30T06:09:13.614Z,101369.80
2022-08-30T06:11:41.762Z,101373.80
2022-08-30T06:14:09.097Z,101370.60
2022-08-30T06:16:40.236Z,101370.40
2022-08-30T06:19:10.972Z,101376.40
2022-08-30T06:21:40.555Z,101379.20
2022-08-30T06:24:10.998Z,101384.60
2022-08-30T06:26:42.656Z,101386.20
2022-08-30T06:29:13.321Z,101383.40
2022-08-30T06:31:40.487Z,101383.40
2022-08-30T06:34:08.298Z,101383.20
2022-08-30T06:36:35.787Z,101388.20
2022-08-30T06:39:03.666Z,101385.20
2022-08-30T06:41:37.349Z,101389.40
2022-08-30T06:44:12.052Z,101392.20
2022-08-30T06:46:39.481Z,101400.00
2022-08-30T06:49:07.803Z,101393.20
2022-08-30T06:51:39.789Z,101394.20
2022-08-30T06:54:10.843Z,101387.20
2022-08-30T06:56:48.736Z,101379.80
2022-08-30T06:59:25.486Z,101374.40
2022-08-30T07:01:54.808Z,101375.00
2022-08-30T07:04:21.688Z,101377.80
2022-08-30T07:06:48.476Z,101377.20
2022-08-30T07:09:15.458Z,101376.20
2022-08-30T07:11:42.493Z,101377.80
2022-08-30T07:14:09.363Z,101369.00
2022-08-30T07:16:36.553Z,101372.20
2022-08-30T07:19:05.434Z,101371.80
2022-08-30T07:21:38.216Z,101377.20
2022-08-30T07:24:08.853Z,101380.80
2022-08-30T07:26:49.894Z,101382.40
2022-08-30T07:29:19.392Z,101378.40
2022-08-30T07:31:46.268Z,101384.80
2022-08-30T07:34:13.156Z,101385.20
2022-08-30T07:36:40.218Z,101379.80
2022-08-30T07:39:09.186Z,101385.00
2022-08-30T07:41:38.933Z,101378.60
2022-08-30T07:44:08.528Z,101379.20
2022-08-30T07:46:38.020Z,101382.00
2022-08-30T07:49:11.275Z,101388.60
2022-08-30T07:51:40.217Z,101384.80
2022-08-30T07:54:07.958Z,101390.00
2022-08-30T07:56:36.228Z,101387.20
2022-08-30T07:59:03.821Z,101390.20
2022-08-30T08:01:31.082Z,101388.60
2022-08-30T08:03:57.974Z,101386.00
2022-08-30T08:06:25.528Z,101383.80
2022-08-30T08:08:54.264Z,101390.00
2022-08-30T08:11:27.571Z,101391.40
2022-08-30T08:13:57.564Z,101390.80
2022-08-30T08:16:30.178Z,101393.40
2022-08-30T08:18:57.677Z,101398.00
2022-08-30T08:21:27.279Z,101396.40
2022-08-30T08:23:54.498Z,101395.60
2022-08-30T08:26:22.583Z,101397.20
2022-08-30T08:28:49.592Z,101396.80
2022-08-30T08:31:22.101Z,101396.60
2022-08-30T08:33:56.419Z,101400.80
2022-08-30T08:36:23.298Z,101402.60
2022-08-30T08:38:50.287Z,101403.00
2022-08-30T08:41:59.831Z,101406.80
2022-08-30T08:45:11.683Z,101405.40
2022-08-30T08:48:02.649Z,101408.80
2022-08-30T08:50:32.535Z,101399.80
2022-08-30T08:53:50.713Z,101400.00
2022-08-30T08:56:22.812Z,101397.60
2022-08-30T08:58:54.650Z,101401.20
2022-08-30T09:01:26.150Z,101398.60
2022-08-30T09:03:53.342Z,101402.60
2022-08-30T09:06:56.989Z,101401.80
2022-08-30T09:09:34.193Z,101397.40
2022-08-30T09:12:01.769Z,101402.40
2022-08-30T09:14:36.195Z,101402.20
2022-08-30T09:17:11.776Z,101399.60
2022-08-30T09:19:54.177Z,101398.20
2022-08-30T09:22:46.740Z,101398.80
2022-08-30T09:25:13.650Z,101395.20
2022-08-30T09:27:47.965Z,101392.60
2022-08-30T09:30:28.709Z,101396.80
2022-08-30T09:33:02.441Z,101396.00
2022-08-30T09:35:46.764Z,101398.00
2022-08-30T09:38:26.364Z,101400.80
2022-08-30T09:40:58.734Z,101400.20
2022-08-30T09:43:33.566Z,101392.60
2022-08-30T09:46:00.283Z,101392.80
2022-08-30T09:48:46.165Z,101390.80
2022-08-30T09:51:13.350Z,101393.40
2022-08-30T09:57:35.311Z,101388.60
2022-08-30T10:00:15.547Z,101389.00
2022-08-30T10:03:26.271Z,101385.60
2022-08-30T10:06:06.366Z,101384.40
2022-08-30T10:08:57.545Z,101381.80
2022-08-30T10:11:59.551Z,101388.80
2022-08-30T10:14:57.198Z,101379.00
2022-08-30T10:17:51.917Z,101373.20
2022-08-30T10:21:19.544Z,101377.80
2022-08-30T10:23:53.997Z,101367.40
2022-08-30T10:26:23.726Z,101373.80
2022-08-30T10:29:03.652Z,101369.60
2022-08-30T10:31:59.492Z,101369.80
2022-08-30T10:34:46.387Z,101365.60
2022-08-30T10:37:25.179Z,101365.20
2022-08-30T10:40:00.982Z,101366.60
2022-08-30T10:42:39.825Z,101364.60
2022-08-30T10:45:16.667Z,101367.20
2022-08-30T10:48:01.725Z,101365.80
2022-08-30T10:50:41.328Z,101358.40
2022-08-30T10:53:29.152Z,101365.80
2022-08-30T10:56:07.194Z,101365.80
2022-08-30T10:58:36.662Z,101363.20
2022-08-30T11:01:24.538Z,101361.20
2022-08-30T11:04:07.419Z,101361.40
2022-08-30T11:07:09.993Z,101357.40
2022-08-30T11:09:39.736Z,101358.40
2022-08-30T11:12:25.211Z,101355.00
2022-08-30T11:14:54.251Z,101359.40
2022-08-30T11:17:35.699Z,101355.60
2022-08-30T11:20:21.352Z,101365.20
2022-08-30T11:23:18.902Z,101361.00
2022-08-30T11:26:15.963Z,101353.80
2022-08-30T11:28:47.545Z,101358.40
2022-08-30T11:31:23.722Z,101353.00
2022-08-30T11:33:52.030Z,101347.60
2022-08-30T11:36:46.054Z,101353.20
2022-08-30T11:39:42.828Z,101355.20
2022-08-30T11:42:35.372Z,101355.20
2022-08-30T11:45:47.106Z,101353.20
2022-08-30T11:48:54.105Z,101351.20
2022-08-30T11:55:17.117Z,101345.20
2022-08-30T11:57:55.089Z,101344.20
2022-08-30T12:00:40.726Z,101344.00
2022-08-30T12:03:32.616Z,101334.80
2022-08-30T12:06:06.729Z,101333.80
2022-08-30T12:08:34.198Z,101328.80
2022-08-30T12:11:28.071Z,101333.60
2022-08-30T12:13:56.457Z,101331.00
2022-08-30T12:17:07.893Z,101330.40
2022-08-30T12:19:34.634Z,101325.80
2022-08-30T12:22:08.344Z,101322.40
2022-08-30T12:24:43.820Z,101316.80
2022-08-30T12:27:33.694Z,101318.60
2022-08-30T12:30:08.265Z,101324.20
2022-08-30T12:32:50.580Z,101315.40
2022-08-30T12:35:28.379Z,101313.20
2022-08-30T12:38:06.604Z,101316.40
2022-08-30T12:40:37.516Z,101317.20
2022-08-30T12:43:17.401Z,101315.00
2022-08-30T12:45:50.926Z,101315.80
2022-08-30T12:48:20.630Z,101308.60
2022-08-30T12:50:54.679Z,101307.20
2022-08-30T12:53:28.166Z,101311.20
2022-08-30T12:56:02.218Z,101305.60
2022-08-30T12:58:58.502Z,101307.40
2022-08-30T13:01:26.560Z,101303.20
2022-08-30T13:04:27.001Z,101305.00
2022-08-30T13:06:58.368Z,101302.00
2022-08-30T13:09:43.208Z,101298.40
2022-08-30T13:12:24.051Z,101295.20
2022-08-30T13:14:53.651Z,101293.20
2022-08-30T13:17:28.934Z,101298.20
2022-08-30T13:20:17.184Z,101294.00
2022-08-30T13:23:24.356Z,101295.60
2022-08-30T13:25:51.340Z,101291.20
2022-08-30T13:28:18.472Z,101290.80
2022-08-30T13:30:45.355Z,101285.60
2022-08-30T13:33:13.198Z,101289.40
2022-08-30T13:35:40.091Z,101283.60
2022-08-30T13:38:06.942Z,101284.00
2022-08-30T13:40:33.951Z,101282.00
2022-08-30T13:43:01.376Z,101285.40
2022-08-30T13:45:43.640Z,101278.00
2022-08-30T13:48:13.587Z,101284.80
2022-08-30T13:50:41.005Z,101279.20
2022-08-30T13:53:09.440Z,101274.80
2022-08-30T13:55:39.882Z,101281.20
2022-08-30T13:58:07.837Z,101270.00
2022-08-30T14:00:37.727Z,101270.60
2022-08-30T14:03:05.455Z,101273.80
2022-08-30T14:05:48.942Z,101271.80
2022-08-30T14:08:47.701Z,101273.20
2022-08-30T14:11:19.015Z,101268.80
2022-08-30T14:16:42.185Z,101270.00
2022-08-30T14:19:12.442Z,101262.60
2022-08-30T14:21:39.683Z,101266.80
2022-08-30T14:24:07.452Z,101253.20
2022-08-30T14:26:45.843Z,101256.20
2022-08-30T14:29:18.546Z,101252.40
2022-08-30T14:31:45.762Z,101255.20
2022-08-30T14:34:14.205Z,101251.00
2022-08-30T14:36:43.889Z,101249.80
2022-08-30T14:39:15.877Z,101257.60
2022-08-30T14:41:53.275Z,101254.40
2022-08-30T14:44:22.492Z,101246.60
2022-08-30T14:46:51.117Z,101251.60
2022-08-30T14:49:20.112Z,101243.60
2022-08-30T14:51:48.644Z,101239.40
2022-08-30T14:54:25.426Z,101236.00
2022-08-30T14:56:53.547Z,101246.20
2022-08-30T14:59:20.728Z,101250.60
2022-08-30T15:01:48.433Z,101248.20
2022-08-30T15:04:16.365Z,101240.00
2022-08-30T15:06:47.289Z,101227.60
2022-08-30T15:09:23.346Z,101225.60
2022-08-30T15:11:55.045Z,101231.20
2022-08-30T15:14:24.524Z,101230.00
2022-08-30T15:16:55.409Z,101222.00
2022-08-30T15:19:22.174Z,101222.00
2022-08-30T15:21:49.293Z,101228.60
2022-08-30T15:24:29.360Z,101225.80
2022-08-30T15:26:56.913Z,101247.40
2022-08-30T15:29:24.581Z,101244.00
2022-08-30T15:31:52.907Z,101240.80
2022-08-30T15:34:27.902Z,101240.40
2022-08-30T15:36:55.309Z,101237.20
2022-08-30T15:39:22.164Z,101243.40
2022-08-30T15:41:54.714Z,101239.00
2022-08-30T15:44:24.320Z,101228.60
2022-08-30T15:46:51.349Z,101236.00
2022-08-30T15:49:23.771Z,101235.20
2022-08-30T15:51:54.444Z,101229.40
2022-08-30T15:54:23.585Z,101241.40
2022-08-30T15:56:59.072Z,101230.80
2022-08-30T15:59:31.868Z,101239.60
2022-08-30T16:01:59.751Z,101243.20
2022-08-30T16:04:26.787Z,101241.20
2022-08-30T16:06:54.360Z,101204.00
2022-08-30T16:09:22.134Z,101198.80
2022-08-30T16:11:49.689Z,101200.20
2022-08-30T16:14:16.522Z,101200.00
2022-08-30T16:16:43.576Z,101194.40
2022-08-30T16:19:10.550Z,101185.80
2022-08-30T16:21:39.866Z,101187.80
2022-08-30T16:24:10.549Z,101184.20
2022-08-30T16:26:42.994Z,101179.20
2022-08-30T16:29:12.432Z,101177.40
2022-08-30T16:31:40.897Z,101181.40
2022-08-30T16:34:07.762Z,101180.20
2022-08-30T16:36:36.069Z,101177.40
2022-08-30T16:39:08.501Z,101177.60
2022-08-30T16:41:37.290Z,101180.60
2022-08-30T16:44:06.347Z,101187.60
2022-08-30T16:46:34.916Z,101210.40
2022-08-30T16:49:02.848Z,101214.40
2022-08-30T16:51:32.607Z,101215.20
2022-08-30T16:54:07.628Z,101219.20
2022-08-30T16:56:37.840Z,101216.40
2022-08-30T16:59:10.857Z,101209.00
2022-08-30T17:01:39.294Z,101202.00
2022-08-30T17:04:08.314Z,101205.00
2022-08-30T17:06:36.606Z,101200.80
2022-08-30T17:09:05.985Z,101205.00
2022-08-30T17:11:37.309Z,101208.00
2022-08-30T17:14:05.585Z,101216.40
2022-08-30T17:16:35.490Z,101222.00
2022-08-30T17:19:06.871Z,101216.20
2022-08-30T17:21:35.204Z,101215.80
2022-08-30T17:24:03.460Z,101209.20
2022-08-30T17:26:33.022Z,101208.00
2022-08-30T17:29:00.045Z,101212.40
2022-08-30T17:31:31.097Z,101216.40
2022-08-30T17:34:03.356Z,101222.00
2022-08-30T17:36:35.532Z,101224.60
2022-08-30T17:39:10.992Z,101223.40
2022-08-30T17:41:45.221Z,101223.60
2022-08-30T17:44:17.224Z,101225.00
2022-08-30T17:46:45.046Z,101228.80
2022-08-30T17:49:12.054Z,101230.40
2022-08-30T17:51:42.533Z,101233.60
2022-08-30T17:54:12.784Z,101235.00
2022-08-30T17:56:41.652Z,101237.00
2022-08-30T17:59:11.562Z,101236.80
2022-08-30T18:01:42.140Z,101234.40
2022-08-30T18:04:11.634Z,101235.20
2022-08-30T18:06:39.947Z,101238.40
2022-08-30T18:09:08.973Z,101235.80
2022-08-30T18:11:41.960Z,101240.40
2022-08-30T18:14:12.770Z,101244.80
2022-08-30T18:16:47.445Z,101249.00
2022-08-30T18:19:20.279Z,101248.60
2022-08-30T18:21:47.154Z,101246.20
2022-08-30T18:24:14.112Z,101250.00
2022-08-30T18:26:42.942Z,101253.00
2022-08-30T18:29:10.636Z,101257.40
2022-08-30T18:31:37.622Z,101256.60
2022-08-30T18:34:04.562Z,101260.00
2022-08-30T18:36:31.618Z,101265.80
2022-08-30T18:38:58.819Z,101269.20
2022-08-30T18:41:26.534Z,101271.40
2022-08-30T18:44:10.982Z,101275.20
2022-08-30T18:46:51.233Z,101277.40
2022-08-30T18:49:23.846Z,101283.00
2022-08-30T18:51:50.644Z,101285.00
2022-08-30T18:54:17.696Z,101281.20
2022-08-30T18:56:46.544Z,101277.60
2022-08-30T18:59:13.507Z,101282.20
2022-08-30T19:01:41.377Z,101285.60
2022-08-30T19:04:08.201Z,101286.20
2022-08-30T19:06:37.711Z,101291.00
2022-08-30T19:09:09.271Z,101292.20
2022-08-30T19:11:38.300Z,101296.60
2022-08-30T19:14:06.979Z,101291.80
2022-08-30T19:16:36.052Z,101300.20
2022-08-30T19:19:04.635Z,101301.80
2022-08-30T19:21:31.747Z,101303.20
2022-08-30T19:23:58.623Z,101301.80
2022-08-30T19:26:27.449Z,101303.00
2022-08-30T19:28:54.762Z,101303.80
2022-08-30T19:31:21.626Z,101304.40
2022-08-30T19:33:48.492Z,101305.00
2022-08-30T19:36:15.611Z,101302.80
2022-08-30T19:38:44.562Z,101305.00
2022-08-30T19:41:12.740Z,101300.20
2022-08-30T19:43:40.434Z,101295.20
2022-08-30T19:46:08.625Z,101291.60
2022-08-30T19:48:43.006Z,101290.40
2022-08-30T19:51:13.793Z,101294.40
2022-08-30T19:53:42.152Z,101294.60
2022-08-30T19:56:09.186Z,101297.80
2022-08-30T19:58:36.194Z,101295.40
2022-08-30T20:01:11.786Z,101293.40
2022-08-30T20:03:40.296Z,101296.40
2022-08-30T20:06:08.911Z,101294.40
2022-08-30T20:08:37.306Z,101297.40
2022-08-30T20:11:05.467Z,101293.80
2022-08-30T20:13:33.706Z,101296.40
2022-08-30T20:16:01.622Z,101295.80
2022-08-30T20:18:29.185Z,101295.80
2022-08-30T20:20:56.948Z,101293.20
2022-08-30T20:23:25.593Z,101296.00
2022-08-30T20:25:55.573Z,101297.00
2022-08-30T20:28:25.154Z,101295.80
2022-08-30T20:30:54.418Z,101299.00
2022-08-30T20:33:24.428Z,101292.00
2022-08-30T20:35:52.205Z,101294.80
2022-08-30T20:38:22.091Z,101291.80
2022-08-30T20:40:53.700Z,101287.40
2022-08-30T20:43:23.493Z,101286.60
2022-08-30T20:45:51.109Z,101285.60
2022-08-30T20:48:19.893Z,101286.20
2022-08-30T20:50:46.913Z,101288.00
2022-08-30T20:53:16.079Z,101287.20
2022-08-30T20:55:47.410Z,101289.20
2022-08-30T20:58:14.582Z,101290.40
2022-08-30T21:00:45.823Z,101291.20
2022-08-30T21:03:27.451Z,101289.40
2022-08-30T21:05:56.739Z,101287.00
2022-08-30T21:08:23.855Z,101283.80
2022-08-30T21:10:50.722Z,101284.40
2022-08-30T21:13:17.608Z,101286.20
2022-08-30T21:15:46.242Z,101291.60
2022-08-30T21:18:15.961Z,101291.00
2022-08-30T21:20:43.037Z,101292.00
2022-08-30T21:23:10.275Z,101295.00
2022-08-30T21:25:42.825Z,101294.00
2022-08-30T21:28:10.318Z,101296.60
2022-08-30T21:30:37.894Z,101299.80
2022-08-30T21:33:07.360Z,101302.80
2022-08-30T21:35:55.494Z,101298.60
2022-08-30T21:38:23.474Z,101297.60
2022-08-30T21:40:50.575Z,101297.60
2022-08-30T21:43:17.497Z,101297.40
2022-08-30T21:45:45.811Z,101302.00
2022-08-30T21:48:14.398Z,101304.80
2022-08-30T21:50:43.319Z,101303.00
2022-08-30T21:53:10.932Z,101306.00
2022-08-30T21:55:42.158Z,101310.80
2022-08-30T21:58:10.864Z,101312.60
2022-08-30T22:00:37.660Z,101312.40
2022-08-30T22:03:04.604Z,101309.60
2022-08-30T22:05:31.790Z,101313.60
2022-08-30T22:07:58.771Z,101313.00
2022-08-30T22:10:28.999Z,101317.40
2022-08-30T22:12:58.291Z,101313.40
2022-08-30T22:15:26.776Z,101316.60
2022-08-30T22:17:53.699Z,101320.20
2022-08-30T22:20:20.489Z,101321.40
2022-08-30T22:22:47.585Z,101321.20
2022-08-30T22:25:14.317Z,101316.40
2022-08-30T22:27:41.148Z,101323.40
2022-08-30T22:30:08.936Z,101321.20
2022-08-30T22:32:38.287Z,101325.80
2022-08-30T22:35:06.698Z,101327.60
2022-08-30T22:37:34.107Z,101325.00
2022-08-30T22:40:00.946Z,101328.80
2022-08-30T22:42:27.701Z,101331.20
2022-08-30T22:44:54.452Z,101332.20
2022-08-30T22:47:21.237Z,101333.00
2022-08-30T22:49:48.103Z,101330.60
2022-08-30T22:52:14.874Z,101328.60
2022-08-30T22:54:41.685Z,101332.00
2022-08-30T22:57:09.188Z,101334.20
2022-08-30T22:59:36.920Z,101330.20
2022-08-30T23:02:04.059Z,101332.40
2022-08-30T23:04:31.138Z,101332.40
2022-08-30T23:06:57.876Z,101333.60
2022-08-30T23:09:24.596Z,101331.80
2022-08-30T23:11:51.367Z,101336.60
2022-08-30T23:14:18.151Z,101335.20
2022-08-30T23:16:45.287Z,101333.20
2022-08-30T23:19:12.842Z,101335.80
2022-08-30T23:21:39.692Z,101338.40
2022-08-30T23:24:25.267Z,101334.20
2022-08-30T23:27:10.638Z,101334.40
2022-08-30T23:29:56.485Z,101335.00
2022-08-30T23:32:42.530Z,101331.20
2022-08-30T23:35:32.039Z,101331.80
2022-08-30T23:38:21.665Z,101334.60
2022-08-30T23:41:07.456Z,101330.40
2022-08-30T23:43:54.057Z,101333.60
2022-08-30T23:46:40.189Z,101336.00
2022-08-30T23:49:25.862Z,101337.20
2022-08-30T23:52:11.773Z,101337.80
2022-08-30T23:54:57.419Z,101332.60
2022-08-30T23:57:45.306Z,101337.60
